sensor_id;sensor_type;location;lat;lon;timestamp;P1;durP1;ratioP1;P2;durP2;ratioP2
65996;SDS011;52765;52.258;21.052;2023-11-19T00:00:08;59.78;;;29.30;;
65996;SDS011;52765;52.258;21.052;2023-11-19T00:02:37;59.15;;;30.52;;
65996;SDS011;52765;52.258;21.052;2023-11-19T00:05:04;52.83;;;28.35;;
65996;SDS011;52765;52.258;21.052;2023-11-19T00:07:34;60.70;;;30.25;;
65996;SDS011;52765;52.258;21.052;2023-11-19T00:10:03;55.78;;;29.77;;
65996;SDS011;52765;52.258;21.052;2023-11-19T00:12:32;56.42;;;31.13;;
65996;SDS011;52765;52.258;21.052;2023-11-19T00:15:05;60.97;;;31.33;;
65996;SDS011;52765;52.258;21.052;2023-11-19T00:17:36;56.67;;;29.80;;
65996;SDS011;52765;52.258;21.052;2023-11-19T00:20:19;60.47;;;32.40;;
65996;SDS011;52765;52.258;21.052;2023-11-19T00:23:05;68.03;;;30.98;;
65996;SDS011;52765;52.258;21.052;2023-11-19T00:25:51;62.25;;;30.85;;
65996;SDS011;52765;52.258;21.052;2023-11-19T00:28:37;54.45;;;28.58;;
65996;SDS011;52765;52.258;21.052;2023-11-19T00:31:12;58.13;;;29.95;;
65996;SDS011;52765;52.258;21.052;2023-11-19T00:33:37;59.85;;;32.03;;
65996;SDS011;52765;52.258;21.052;2023-11-19T00:36:08;60.15;;;31.63;;
65996;SDS011;52765;52.258;21.052;2023-11-19T00:38:40;55.78;;;30.30;;
65996;SDS011;52765;52.258;21.052;2023-11-19T00:41:06;62.80;;;31.30;;
65996;SDS011;52765;52.258;21.052;2023-11-19T00:43:31;62.20;;;33.08;;
65996;SDS011;52765;52.258;21.052;2023-11-19T00:45:57;64.50;;;32.15;;
65996;SDS011;52765;52.258;21.052;2023-11-19T00:48:22;64.22;;;34.20;;
65996;SDS011;52765;52.258;21.052;2023-11-19T00:50:51;60.25;;;32.67;;
65996;SDS011;52765;52.258;21.052;2023-11-19T00:53:16;66.45;;;33.58;;
65996;SDS011;52765;52.258;21.052;2023-11-19T00:55:57;66.28;;;34.65;;
65996;SDS011;52765;52.258;21.052;2023-11-19T00:58:28;63.08;;;31.05;;
65996;SDS011;52765;52.258;21.052;2023-11-19T01:01:05;60.33;;;32.47;;
65996;SDS011;52765;52.258;21.052;2023-11-19T01:03:36;62.25;;;33.53;;
65996;SDS011;52765;52.258;21.052;2023-11-19T01:06:07;63.00;;;32.63;;
65996;SDS011;52765;52.258;21.052;2023-11-19T01:08:35;58.80;;;31.65;;
65996;SDS011;52765;52.258;21.052;2023-11-19T01:11:01;66.50;;;34.17;;
65996;SDS011;52765;52.258;21.052;2023-11-19T01:13:27;64.90;;;35.28;;
65996;SDS011;52765;52.258;21.052;2023-11-19T01:15:53;60.45;;;32.80;;
65996;SDS011;52765;52.258;21.052;2023-11-19T01:18:18;60.28;;;33.00;;
65996;SDS011;52765;52.258;21.052;2023-11-19T01:20:44;58.30;;;33.03;;
65996;SDS011;52765;52.258;21.052;2023-11-19T01:23:09;61.10;;;31.48;;
65996;SDS011;52765;52.258;21.052;2023-11-19T01:25:35;59.03;;;31.48;;
65996;SDS011;52765;52.258;21.052;2023-11-19T01:28:03;60.17;;;31.23;;
65996;SDS011;52765;52.258;21.052;2023-11-19T01:30:29;62.58;;;33.20;;
65996;SDS011;52765;52.258;21.052;2023-11-19T01:32:55;56.40;;;30.95;;
65996;SDS011;52765;52.258;21.052;2023-11-19T01:35:21;58.22;;;31.48;;
65996;SDS011;52765;52.258;21.052;2023-11-19T01:37:50;54.67;;;28.90;;
65996;SDS011;52765;52.258;21.052;2023-11-19T01:43:42;56.22;;;29.63;;
65996;SDS011;52765;52.258;21.052;2023-11-19T01:46:08;64.25;;;31.48;;
65996;SDS011;52765;52.258;21.052;2023-11-19T01:48:41;60.28;;;31.23;;
65996;SDS011;52765;52.258;21.052;2023-11-19T01:51:11;58.93;;;30.60;;
65996;SDS011;52765;52.258;21.052;2023-11-19T01:53:48;55.35;;;29.58;;
65996;SDS011;52765;52.258;21.052;2023-11-19T01:56:25;59.08;;;30.30;;
65996;SDS011;52765;52.258;21.052;2023-11-19T01:58:58;57.35;;;30.83;;
65996;SDS011;52765;52.258;21.052;2023-11-19T02:01:28;56.13;;;28.70;;
65996;SDS011;52765;52.258;21.052;2023-11-19T02:04:18;58.88;;;30.67;;
65996;SDS011;52765;52.258;21.052;2023-11-19T02:06:43;61.63;;;31.60;;
65996;SDS011;52765;52.258;21.052;2023-11-19T02:12:55;62.17;;;29.92;;
65996;SDS011;52765;52.258;21.052;2023-11-19T02:15:38;56.20;;;29.13;;
65996;SDS011;52765;52.258;21.052;2023-11-19T02:18:31;59.40;;;29.85;;
65996;SDS011;52765;52.258;21.052;2023-11-19T02:21:02;57.47;;;29.80;;
65996;SDS011;52765;52.258;21.052;2023-11-19T02:23:49;60.83;;;31.20;;
65996;SDS011;52765;52.258;21.052;2023-11-19T02:26:44;58.25;;;28.77;;
65996;SDS011;52765;52.258;21.052;2023-11-19T02:29:25;62.40;;;31.63;;
65996;SDS011;52765;52.258;21.052;2023-11-19T02:31:52;57.88;;;31.85;;
65996;SDS011;52765;52.258;21.052;2023-11-19T02:34:20;61.30;;;32.55;;
65996;SDS011;52765;52.258;21.052;2023-11-19T02:36:57;61.47;;;31.17;;
65996;SDS011;52765;52.258;21.052;2023-11-19T02:39:25;64.72;;;32.55;;
65996;SDS011;52765;52.258;21.052;2023-11-19T02:41:51;60.78;;;31.95;;
65996;SDS011;52765;52.258;21.052;2023-11-19T02:44:18;63.63;;;30.83;;
65996;SDS011;52765;52.258;21.052;2023-11-19T02:46:43;58.92;;;31.60;;
65996;SDS011;52765;52.258;21.052;2023-11-19T02:49:09;57.83;;;31.30;;
65996;SDS011;52765;52.258;21.052;2023-11-19T02:51:34;59.63;;;31.30;;
65996;SDS011;52765;52.258;21.052;2023-11-19T02:54:02;54.83;;;29.15;;
65996;SDS011;52765;52.258;21.052;2023-11-19T02:56:28;57.67;;;29.15;;
65996;SDS011;52765;52.258;21.052;2023-11-19T02:58:59;57.10;;;30.10;;
65996;SDS011;52765;52.258;21.052;2023-11-19T03:01:32;55.58;;;29.10;;
65996;SDS011;52765;52.258;21.052;2023-11-19T03:04:01;60.25;;;30.13;;
65996;SDS011;52765;52.258;21.052;2023-11-19T03:06:27;56.13;;;29.63;;
65996;SDS011;52765;52.258;21.052;2023-11-19T03:08:54;53.97;;;28.67;;
65996;SDS011;52765;52.258;21.052;2023-11-19T03:11:23;57.60;;;29.73;;
65996;SDS011;52765;52.258;21.052;2023-11-19T03:13:49;60.70;;;30.90;;
65996;SDS011;52765;52.258;21.052;2023-11-19T03:16:15;62.85;;;30.77;;
65996;SDS011;52765;52.258;21.052;2023-11-19T03:18:41;62.78;;;30.05;;
65996;SDS011;52765;52.258;21.052;2023-11-19T03:21:07;60.58;;;29.98;;
65996;SDS011;52765;52.258;21.052;2023-11-19T03:23:36;59.08;;;29.02;;
65996;SDS011;52765;52.258;21.052;2023-11-19T03:26:02;58.95;;;29.17;;
65996;SDS011;52765;52.258;21.052;2023-11-19T03:28:31;56.72;;;29.02;;
65996;SDS011;52765;52.258;21.052;2023-11-19T03:30:56;63.05;;;32.47;;
65996;SDS011;52765;52.258;21.052;2023-11-19T03:33:22;57.55;;;30.45;;
65996;SDS011;52765;52.258;21.052;2023-11-19T03:35:48;63.10;;;31.50;;
65996;SDS011;52765;52.258;21.052;2023-11-19T03:38:13;63.65;;;31.55;;
65996;SDS011;52765;52.258;21.052;2023-11-19T03:40:40;61.30;;;30.48;;
65996;SDS011;52765;52.258;21.052;2023-11-19T03:43:05;57.45;;;28.65;;
65996;SDS011;52765;52.258;21.052;2023-11-19T03:45:31;56.83;;;29.98;;
65996;SDS011;52765;52.258;21.052;2023-11-19T03:48:05;55.95;;;28.33;;
65996;SDS011;52765;52.258;21.052;2023-11-19T03:53:00;58.75;;;29.48;;
65996;SDS011;52765;52.258;21.052;2023-11-19T03:55:27;58.20;;;29.83;;
65996;SDS011;52765;52.258;21.052;2023-11-19T03:57:56;55.78;;;29.45;;
65996;SDS011;52765;52.258;21.052;2023-11-19T04:00:22;53.65;;;28.98;;
65996;SDS011;52765;52.258;21.052;2023-11-19T04:02:48;56.92;;;28.52;;
65996;SDS011;52765;52.258;21.052;2023-11-19T04:05:13;58.78;;;29.67;;
65996;SDS011;52765;52.258;21.052;2023-11-19T04:07:39;54.50;;;29.00;;
65996;SDS011;52765;52.258;21.052;2023-11-19T04:10:05;58.28;;;30.00;;
65996;SDS011;52765;52.258;21.052;2023-11-19T04:12:30;59.45;;;30.00;;
65996;SDS011;52765;52.258;21.052;2023-11-19T04:14:56;61.78;;;30.15;;
65996;SDS011;52765;52.258;21.052;2023-11-19T04:17:21;53.75;;;28.45;;
65996;SDS011;52765;52.258;21.052;2023-11-19T04:19:48;55.30;;;28.83;;
65996;SDS011;52765;52.258;21.052;2023-11-19T04:22:13;56.00;;;28.77;;
65996;SDS011;52765;52.258;21.052;2023-11-19T04:24:39;55.30;;;26.45;;
65996;SDS011;52765;52.258;21.052;2023-11-19T04:27:11;57.10;;;27.20;;
65996;SDS011;52765;52.258;21.052;2023-11-19T04:29:36;51.00;;;26.23;;
65996;SDS011;52765;52.258;21.052;2023-11-19T04:32:02;51.08;;;26.42;;
65996;SDS011;52765;52.258;21.052;2023-11-19T04:34:28;52.55;;;27.55;;
65996;SDS011;52765;52.258;21.052;2023-11-19T04:36:53;53.60;;;27.85;;
65996;SDS011;52765;52.258;21.052;2023-11-19T04:39:19;54.42;;;28.75;;
65996;SDS011;52765;52.258;21.052;2023-11-19T04:41:48;55.70;;;27.30;;
65996;SDS011;52765;52.258;21.052;2023-11-19T04:44:15;56.40;;;27.85;;
65996;SDS011;52765;52.258;21.052;2023-11-19T04:46:41;56.92;;;29.85;;
65996;SDS011;52765;52.258;21.052;2023-11-19T04:49:10;59.55;;;30.55;;
65996;SDS011;52765;52.258;21.052;2023-11-19T04:51:38;59.42;;;29.25;;
65996;SDS011;52765;52.258;21.052;2023-11-19T04:54:04;57.28;;;29.15;;
65996;SDS011;52765;52.258;21.052;2023-11-19T04:56:30;54.60;;;28.10;;
65996;SDS011;52765;52.258;21.052;2023-11-19T04:59:02;53.15;;;27.25;;
65996;SDS011;52765;52.258;21.052;2023-11-19T05:01:28;57.13;;;28.55;;
65996;SDS011;52765;52.258;21.052;2023-11-19T05:03:55;56.00;;;27.42;;
65996;SDS011;52765;52.258;21.052;2023-11-19T05:06:25;50.63;;;26.05;;
65996;SDS011;52765;52.258;21.052;2023-11-19T05:08:52;54.70;;;27.63;;
65996;SDS011;52765;52.258;21.052;2023-11-19T05:11:19;59.30;;;30.00;;
65996;SDS011;52765;52.258;21.052;2023-11-19T05:13:45;52.08;;;27.15;;
65996;SDS011;52765;52.258;21.052;2023-11-19T05:16:10;62.72;;;30.50;;
65996;SDS011;52765;52.258;21.052;2023-11-19T05:18:39;56.28;;;28.52;;
65996;SDS011;52765;52.258;21.052;2023-11-19T05:21:05;55.35;;;27.98;;
65996;SDS011;52765;52.258;21.052;2023-11-19T05:23:30;56.67;;;28.15;;
65996;SDS011;52765;52.258;21.052;2023-11-19T05:25:59;57.00;;;26.92;;
65996;SDS011;52765;52.258;21.052;2023-11-19T05:28:26;49.58;;;26.42;;
65996;SDS011;52765;52.258;21.052;2023-11-19T05:30:51;51.53;;;26.38;;
65996;SDS011;52765;52.258;21.052;2023-11-19T05:33:17;55.60;;;28.05;;
65996;SDS011;52765;52.258;21.052;2023-11-19T05:35:42;54.95;;;28.25;;
65996;SDS011;52765;52.258;21.052;2023-11-19T05:38:08;51.75;;;26.27;;
65996;SDS011;52765;52.258;21.052;2023-11-19T05:40:34;50.28;;;24.98;;
65996;SDS011;52765;52.258;21.052;2023-11-19T05:43:00;48.45;;;26.73;;
65996;SDS011;52765;52.258;21.052;2023-11-19T05:45:26;49.63;;;25.40;;
65996;SDS011;52765;52.258;21.052;2023-11-19T05:47:52;52.08;;;27.20;;
65996;SDS011;52765;52.258;21.052;2023-11-19T05:50:17;47.53;;;25.67;;
65996;SDS011;52765;52.258;21.052;2023-11-19T05:52:44;51.97;;;25.98;;
65996;SDS011;52765;52.258;21.052;2023-11-19T05:55:15;47.78;;;25.15;;
65996;SDS011;52765;52.258;21.052;2023-11-19T05:57:40;49.03;;;24.83;;
65996;SDS011;52765;52.258;21.052;2023-11-19T06:00:09;44.88;;;23.85;;
65996;SDS011;52765;52.258;21.052;2023-11-19T06:02:36;47.08;;;24.70;;
65996;SDS011;52765;52.258;21.052;2023-11-19T06:05:03;44.72;;;23.83;;
65996;SDS011;52765;52.258;21.052;2023-11-19T06:07:31;44.75;;;23.42;;
65996;SDS011;52765;52.258;21.052;2023-11-19T06:10:00;40.53;;;22.15;;
65996;SDS011;52765;52.258;21.052;2023-11-19T06:12:30;43.40;;;22.33;;
65996;SDS011;52765;52.258;21.052;2023-11-19T06:14:57;41.17;;;22.67;;
65996;SDS011;52765;52.258;21.052;2023-11-19T06:17:22;45.15;;;22.80;;
65996;SDS011;52765;52.258;21.052;2023-11-19T06:19:51;43.40;;;23.45;;
65996;SDS011;52765;52.258;21.052;2023-11-19T06:22:17;40.05;;;22.80;;
65996;SDS011;52765;52.258;21.052;2023-11-19T06:24:44;39.25;;;21.38;;
65996;SDS011;52765;52.258;21.052;2023-11-19T06:27:10;44.67;;;23.08;;
65996;SDS011;52765;52.258;21.052;2023-11-19T06:29:35;40.58;;;21.98;;
65996;SDS011;52765;52.258;21.052;2023-11-19T06:32:01;41.13;;;21.70;;
65996;SDS011;52765;52.258;21.052;2023-11-19T06:34:27;39.22;;;21.08;;
65996;SDS011;52765;52.258;21.052;2023-11-19T06:36:53;43.30;;;21.88;;
65996;SDS011;52765;52.258;21.052;2023-11-19T06:39:21;37.35;;;20.75;;
65996;SDS011;52765;52.258;21.052;2023-11-19T06:41:47;35.45;;;19.75;;
65996;SDS011;52765;52.258;21.052;2023-11-19T06:44:12;41.58;;;23.10;;
65996;SDS011;52765;52.258;21.052;2023-11-19T06:46:38;36.50;;;20.58;;
65996;SDS011;52765;52.258;21.052;2023-11-19T06:49:07;39.10;;;20.52;;
65996;SDS011;52765;52.258;21.052;2023-11-19T06:51:35;33.13;;;19.10;;
65996;SDS011;52765;52.258;21.052;2023-11-19T06:54:00;31.17;;;17.50;;
65996;SDS011;52765;52.258;21.052;2023-11-19T06:56:26;30.98;;;18.63;;
65996;SDS011;52765;52.258;21.052;2023-11-19T06:58:51;28.70;;;16.65;;
65996;SDS011;52765;52.258;21.052;2023-11-19T07:01:17;27.98;;;15.60;;
65996;SDS011;52765;52.258;21.052;2023-11-19T07:03:46;28.00;;;16.50;;
65996;SDS011;52765;52.258;21.052;2023-11-19T07:06:12;27.70;;;15.00;;
65996;SDS011;52765;52.258;21.052;2023-11-19T07:08:43;26.60;;;14.90;;
65996;SDS011;52765;52.258;21.052;2023-11-19T07:11:10;28.70;;;15.40;;
65996;SDS011;52765;52.258;21.052;2023-11-19T07:13:37;26.10;;;14.27;;
65996;SDS011;52765;52.258;21.052;2023-11-19T07:16:05;26.83;;;15.52;;
65996;SDS011;52765;52.258;21.052;2023-11-19T07:18:31;23.23;;;13.55;;
65996;SDS011;52765;52.258;21.052;2023-11-19T07:20:57;23.08;;;13.18;;
65996;SDS011;52765;52.258;21.052;2023-11-19T07:23:22;22.38;;;13.50;;
65996;SDS011;52765;52.258;21.052;2023-11-19T07:25:48;20.00;;;12.43;;
65996;SDS011;52765;52.258;21.052;2023-11-19T07:28:15;20.70;;;12.30;;
65996;SDS011;52765;52.258;21.052;2023-11-19T07:30:41;20.90;;;12.75;;
65996;SDS011;52765;52.258;21.052;2023-11-19T07:33:07;20.20;;;12.32;;
65996;SDS011;52765;52.258;21.052;2023-11-19T07:35:33;20.85;;;12.43;;
65996;SDS011;52765;52.258;21.052;2023-11-19T07:37:59;20.73;;;12.77;;
65996;SDS011;52765;52.258;21.052;2023-11-19T07:40:24;20.80;;;12.63;;
65996;SDS011;52765;52.258;21.052;2023-11-19T07:42:50;22.05;;;13.70;;
65996;SDS011;52765;52.258;21.052;2023-11-19T07:45:16;22.23;;;13.20;;
65996;SDS011;52765;52.258;21.052;2023-11-19T07:47:42;20.45;;;13.13;;
65996;SDS011;52765;52.258;21.052;2023-11-19T07:50:11;21.60;;;13.45;;
65996;SDS011;52765;52.258;21.052;2023-11-19T07:52:39;23.98;;;14.52;;
65996;SDS011;52765;52.258;21.052;2023-11-19T07:55:05;21.15;;;13.55;;
65996;SDS011;52765;52.258;21.052;2023-11-19T07:57:33;20.38;;;13.50;;
65996;SDS011;52765;52.258;21.052;2023-11-19T07:59:58;24.05;;;15.65;;
65996;SDS011;52765;52.258;21.052;2023-11-19T08:02:26;20.67;;;13.18;;
65996;SDS011;52765;52.258;21.052;2023-11-19T08:04:51;30.17;;;18.98;;
65996;SDS011;52765;52.258;21.052;2023-11-19T08:07:21;23.63;;;15.43;;
65996;SDS011;52765;52.258;21.052;2023-11-19T08:09:47;21.02;;;13.93;;
65996;SDS011;52765;52.258;21.052;2023-11-19T08:12:13;21.10;;;13.40;;
65996;SDS011;52765;52.258;21.052;2023-11-19T08:14:40;22.08;;;13.90;;
65996;SDS011;52765;52.258;21.052;2023-11-19T08:17:06;22.77;;;14.48;;
65996;SDS011;52765;52.258;21.052;2023-11-19T08:19:32;20.48;;;13.80;;
65996;SDS011;52765;52.258;21.052;2023-11-19T08:21:57;22.08;;;13.80;;
65996;SDS011;52765;52.258;21.052;2023-11-19T08:24:23;22.38;;;13.88;;
65996;SDS011;52765;52.258;21.052;2023-11-19T08:26:49;21.58;;;13.30;;
65996;SDS011;52765;52.258;21.052;2023-11-19T08:29:14;26.73;;;15.27;;
65996;SDS011;52765;52.258;21.052;2023-11-19T08:31:39;24.42;;;15.70;;
65996;SDS011;52765;52.258;21.052;2023-11-19T08:34:05;22.33;;;13.90;;
65996;SDS011;52765;52.258;21.052;2023-11-19T08:36:33;22.27;;;14.10;;
65996;SDS011;52765;52.258;21.052;2023-11-19T08:38:59;20.20;;;12.68;;
65996;SDS011;52765;52.258;21.052;2023-11-19T08:41:25;21.23;;;13.32;;
65996;SDS011;52765;52.258;21.052;2023-11-19T08:43:52;23.00;;;14.45;;
65996;SDS011;52765;52.258;21.052;2023-11-19T08:46:18;24.77;;;15.20;;
65996;SDS011;52765;52.258;21.052;2023-11-19T08:48:44;24.58;;;14.35;;
65996;SDS011;52765;52.258;21.052;2023-11-19T08:51:11;27.25;;;16.20;;
65996;SDS011;52765;52.258;21.052;2023-11-19T08:53:36;24.90;;;15.77;;
65996;SDS011;52765;52.258;21.052;2023-11-19T08:56:02;25.73;;;17.10;;
65996;SDS011;52765;52.258;21.052;2023-11-19T08:58:28;24.80;;;14.80;;
65996;SDS011;52765;52.258;21.052;2023-11-19T09:00:56;25.80;;;14.45;;
65996;SDS011;52765;52.258;21.052;2023-11-19T09:03:30;24.55;;;14.77;;
65996;SDS011;52765;52.258;21.052;2023-11-19T09:05:56;21.83;;;13.20;;
65996;SDS011;52765;52.258;21.052;2023-11-19T09:08:22;21.33;;;13.65;;
65996;SDS011;52765;52.258;21.052;2023-11-19T09:10:47;24.77;;;15.60;;
65996;SDS011;52765;52.258;21.052;2023-11-19T09:13:13;26.48;;;15.07;;
65996;SDS011;52765;52.258;21.052;2023-11-19T09:15:38;23.20;;;13.65;;
65996;SDS011;52765;52.258;21.052;2023-11-19T09:18:07;23.38;;;14.48;;
65996;SDS011;52765;52.258;21.052;2023-11-19T09:20:32;23.40;;;13.23;;
65996;SDS011;52765;52.258;21.052;2023-11-19T09:23:05;21.77;;;13.65;;
65996;SDS011;52765;52.258;21.052;2023-11-19T09:25:31;21.20;;;13.27;;
65996;SDS011;52765;52.258;21.052;2023-11-19T09:27:57;21.95;;;13.35;;
65996;SDS011;52765;52.258;21.052;2023-11-19T09:30:22;26.40;;;16.08;;
65996;SDS011;52765;52.258;21.052;2023-11-19T09:32:48;27.45;;;14.55;;
65996;SDS011;52765;52.258;21.052;2023-11-19T09:35:13;21.48;;;13.95;;
65996;SDS011;52765;52.258;21.052;2023-11-19T09:37:40;23.83;;;14.93;;
65996;SDS011;52765;52.258;21.052;2023-11-19T09:40:06;24.90;;;14.50;;
65996;SDS011;52765;52.258;21.052;2023-11-19T09:42:38;24.67;;;13.93;;
65996;SDS011;52765;52.258;21.052;2023-11-19T09:45:16;22.60;;;13.50;;
65996;SDS011;52765;52.258;21.052;2023-11-19T09:47:46;23.92;;;15.20;;
65996;SDS011;52765;52.258;21.052;2023-11-19T09:50:18;24.13;;;14.57;;
65996;SDS011;52765;52.258;21.052;2023-11-19T09:52:45;24.52;;;15.25;;
65996;SDS011;52765;52.258;21.052;2023-11-19T09:55:11;26.42;;;15.85;;
65996;SDS011;52765;52.258;21.052;2023-11-19T09:57:40;28.33;;;17.05;;
65996;SDS011;52765;52.258;21.052;2023-11-19T10:00:10;28.65;;;17.10;;
65996;SDS011;52765;52.258;21.052;2023-11-19T10:02:45;26.67;;;15.25;;
65996;SDS011;52765;52.258;21.052;2023-11-19T10:05:15;26.23;;;15.63;;
65996;SDS011;52765;52.258;21.052;2023-11-19T10:07:40;29.45;;;17.15;;
65996;SDS011;52765;52.258;21.052;2023-11-19T10:10:06;23.27;;;14.57;;
65996;SDS011;52765;52.258;21.052;2023-11-19T10:12:32;27.40;;;16.58;;
65996;SDS011;52765;52.258;21.052;2023-11-19T10:14:59;25.45;;;15.65;;
65996;SDS011;52765;52.258;21.052;2023-11-19T10:17:34;33.55;;;17.45;;
65996;SDS011;52765;52.258;21.052;2023-11-19T10:20:00;25.08;;;15.95;;
65996;SDS011;52765;52.258;21.052;2023-11-19T10:22:27;25.08;;;16.23;;
65996;SDS011;52765;52.258;21.052;2023-11-19T10:24:53;28.02;;;17.40;;
65996;SDS011;52765;52.258;21.052;2023-11-19T10:27:18;25.45;;;15.57;;
65996;SDS011;52765;52.258;21.052;2023-11-19T10:29:47;25.20;;;16.10;;
65996;SDS011;52765;52.258;21.052;2023-11-19T10:32:12;23.13;;;14.45;;
65996;SDS011;52765;52.258;21.052;2023-11-19T10:34:40;24.33;;;14.93;;
65996;SDS011;52765;52.258;21.052;2023-11-19T10:37:08;27.17;;;15.80;;
65996;SDS011;52765;52.258;21.052;2023-11-19T10:39:53;26.10;;;15.60;;
65996;SDS011;52765;52.258;21.052;2023-11-19T10:44:45;27.98;;;16.63;;
65996;SDS011;52765;52.258;21.052;2023-11-19T10:47:11;29.00;;;17.92;;
65996;SDS011;52765;52.258;21.052;2023-11-19T10:49:40;25.45;;;15.63;;
65996;SDS011;52765;52.258;21.052;2023-11-19T10:52:07;27.20;;;16.15;;
65996;SDS011;52765;52.258;21.052;2023-11-19T10:54:34;24.88;;;14.68;;
65996;SDS011;52765;52.258;21.052;2023-11-19T10:57:30;27.63;;;16.05;;
65996;SDS011;52765;52.258;21.052;2023-11-19T11:00:02;26.70;;;16.75;;
65996;SDS011;52765;52.258;21.052;2023-11-19T11:02:35;28.13;;;17.13;;
65996;SDS011;52765;52.258;21.052;2023-11-19T11:05:06;29.88;;;17.23;;
65996;SDS011;52765;52.258;21.052;2023-11-19T11:07:33;31.30;;;18.02;;
65996;SDS011;52765;52.258;21.052;2023-11-19T11:10:00;29.55;;;17.70;;
65996;SDS011;52765;52.258;21.052;2023-11-19T11:12:26;27.20;;;15.95;;
65996;SDS011;52765;52.258;21.052;2023-11-19T11:14:53;27.30;;;15.60;;
65996;SDS011;52765;52.258;21.052;2023-11-19T11:17:20;29.17;;;15.80;;
65996;SDS011;52765;52.258;21.052;2023-11-19T11:19:55;25.50;;;15.70;;
65996;SDS011;52765;52.258;21.052;2023-11-19T11:22:20;29.33;;;16.38;;
65996;SDS011;52765;52.258;21.052;2023-11-19T11:38:30;36.03;;;19.73;;
65996;SDS011;52765;52.258;21.052;2023-11-19T11:43:51;31.48;;;19.13;;
65996;SDS011;52765;52.258;21.052;2023-11-19T11:49:25;28.50;;;17.55;;
65996;SDS011;52765;52.258;21.052;2023-11-19T11:51:57;32.90;;;19.90;;
65996;SDS011;52765;52.258;21.052;2023-11-19T11:59:34;32.28;;;18.40;;
65996;SDS011;52765;52.258;21.052;2023-11-19T12:02:03;27.45;;;17.48;;
65996;SDS011;52765;52.258;21.052;2023-11-19T12:04:28;30.10;;;18.02;;
65996;SDS011;52765;52.258;21.052;2023-11-19T12:07:04;32.28;;;17.90;;
65996;SDS011;52765;52.258;21.052;2023-11-19T12:09:42;27.75;;;17.65;;
65996;SDS011;52765;52.258;21.052;2023-11-19T12:12:22;30.77;;;17.17;;
65996;SDS011;52765;52.258;21.052;2023-11-19T12:15:00;30.92;;;18.42;;
65996;SDS011;52765;52.258;21.052;2023-11-19T12:20:01;29.10;;;17.25;;
65996;SDS011;52765;52.258;21.052;2023-11-19T12:22:40;30.63;;;18.23;;
65996;SDS011;52765;52.258;21.052;2023-11-19T12:25:07;29.80;;;18.80;;
65996;SDS011;52765;52.258;21.052;2023-11-19T12:27:39;29.08;;;17.20;;
65996;SDS011;52765;52.258;21.052;2023-11-19T12:30:05;33.72;;;19.73;;
65996;SDS011;52765;52.258;21.052;2023-11-19T12:32:38;29.70;;;18.30;;
65996;SDS011;52765;52.258;21.052;2023-11-19T12:35:11;30.35;;;18.35;;
65996;SDS011;52765;52.258;21.052;2023-11-19T12:37:47;29.92;;;18.05;;
65996;SDS011;52765;52.258;21.052;2023-11-19T12:40:20;30.85;;;18.92;;
65996;SDS011;52765;52.258;21.052;2023-11-19T12:42:47;30.40;;;18.05;;
65996;SDS011;52765;52.258;21.052;2023-11-19T12:45:13;29.13;;;17.05;;
65996;SDS011;52765;52.258;21.052;2023-11-19T12:47:41;30.92;;;18.15;;
65996;SDS011;52765;52.258;21.052;2023-11-19T12:50:07;27.35;;;17.00;;
65996;SDS011;52765;52.258;21.052;2023-11-19T12:52:37;32.25;;;18.55;;
65996;SDS011;52765;52.258;21.052;2023-11-19T12:57:52;29.63;;;17.40;;
65996;SDS011;52765;52.258;21.052;2023-11-19T13:00:20;29.25;;;18.80;;
65996;SDS011;52765;52.258;21.052;2023-11-19T13:02:52;31.60;;;17.83;;
65996;SDS011;52765;52.258;21.052;2023-11-19T13:05:26;34.13;;;20.95;;
65996;SDS011;52765;52.258;21.052;2023-11-19T13:07:59;27.48;;;17.35;;
65996;SDS011;52765;52.258;21.052;2023-11-19T13:10:29;26.30;;;16.20;;
65996;SDS011;52765;52.258;21.052;2023-11-19T13:13:01;29.45;;;16.70;;
65996;SDS011;52765;52.258;21.052;2023-11-19T13:15:28;25.77;;;16.23;;
65996;SDS011;52765;52.258;21.052;2023-11-19T13:17:54;27.50;;;16.65;;
65996;SDS011;52765;52.258;21.052;2023-11-19T13:20:20;28.27;;;16.23;;
65996;SDS011;52765;52.258;21.052;2023-11-19T13:22:59;27.15;;;16.55;;
65996;SDS011;52765;52.258;21.052;2023-11-19T13:25:26;28.95;;;17.27;;
65996;SDS011;52765;52.258;21.052;2023-11-19T13:27:53;25.70;;;17.23;;
65996;SDS011;52765;52.258;21.052;2023-11-19T13:30:25;29.25;;;17.52;;
65996;SDS011;52765;52.258;21.052;2023-11-19T13:32:51;25.85;;;16.88;;
65996;SDS011;52765;52.258;21.052;2023-11-19T13:35:17;30.08;;;18.02;;
65996;SDS011;52765;52.258;21.052;2023-11-19T13:37:43;30.38;;;18.20;;
65996;SDS011;52765;52.258;21.052;2023-11-19T13:40:10;32.13;;;20.00;;
65996;SDS011;52765;52.258;21.052;2023-11-19T13:42:39;33.70;;;19.40;;
65996;SDS011;52765;52.258;21.052;2023-11-19T13:45:09;33.28;;;19.05;;
65996;SDS011;52765;52.258;21.052;2023-11-19T13:47:39;33.78;;;19.45;;
65996;SDS011;52765;52.258;21.052;2023-11-19T13:50:17;31.35;;;18.90;;
65996;SDS011;52765;52.258;21.052;2023-11-19T13:55:13;30.65;;;16.52;;
65996;SDS011;52765;52.258;21.052;2023-11-19T13:57:39;30.25;;;17.90;;
65996;SDS011;52765;52.258;21.052;2023-11-19T14:00:07;35.20;;;20.15;;
65996;SDS011;52765;52.258;21.052;2023-11-19T14:02:38;38.72;;;19.77;;
65996;SDS011;52765;52.258;21.052;2023-11-19T14:05:06;33.85;;;18.90;;
65996;SDS011;52765;52.258;21.052;2023-11-19T14:07:37;40.55;;;23.92;;
65996;SDS011;52765;52.258;21.052;2023-11-19T14:10:07;36.92;;;21.45;;
65996;SDS011;52765;52.258;21.052;2023-11-19T14:12:39;34.95;;;20.63;;
65996;SDS011;52765;52.258;21.052;2023-11-19T14:15:07;33.50;;;19.95;;
65996;SDS011;52765;52.258;21.052;2023-11-19T14:17:35;33.88;;;20.10;;
65996;SDS011;52765;52.258;21.052;2023-11-19T14:20:02;34.25;;;19.98;;
65996;SDS011;52765;52.258;21.052;2023-11-19T14:22:38;35.75;;;21.20;;
65996;SDS011;52765;52.258;21.052;2023-11-19T14:25:04;37.63;;;22.50;;
65996;SDS011;52765;52.258;21.052;2023-11-19T14:27:35;37.70;;;21.90;;
65996;SDS011;52765;52.258;21.052;2023-11-19T14:30:08;36.38;;;21.08;;
65996;SDS011;52765;52.258;21.052;2023-11-19T14:32:36;38.72;;;22.17;;
65996;SDS011;52765;52.258;21.052;2023-11-19T14:35:02;39.08;;;23.63;;
65996;SDS011;52765;52.258;21.052;2023-11-19T14:37:28;40.88;;;22.08;;
65996;SDS011;52765;52.258;21.052;2023-11-19T14:39:59;39.13;;;22.92;;
65996;SDS011;52765;52.258;21.052;2023-11-19T14:42:25;37.47;;;21.73;;
65996;SDS011;52765;52.258;21.052;2023-11-19T14:44:54;36.60;;;21.35;;
65996;SDS011;52765;52.258;21.052;2023-11-19T14:47:20;39.80;;;22.10;;
65996;SDS011;52765;52.258;21.052;2023-11-19T14:49:46;41.33;;;22.95;;
65996;SDS011;52765;52.258;21.052;2023-11-19T14:52:12;35.15;;;21.02;;
65996;SDS011;52765;52.258;21.052;2023-11-19T14:54:37;35.70;;;21.70;;
65996;SDS011;52765;52.258;21.052;2023-11-19T14:57:04;37.80;;;21.52;;
65996;SDS011;52765;52.258;21.052;2023-11-19T14:59:30;51.35;;;29.92;;